Huvudsida
METAR-TAF:

METAR-TAF

Flygplatser :

Oljeplattform

Troll A, Norge

latitud: 60-38-42N, longitud: 3-43-29E, höjd: 20 m

Aktuellt väderrapport

Denna rapport gjordes för 44 minuter sedan, klockan 17:50 UTC
Vind 37 kt från väst/sydväst
Temperatur 7°C
Fuktighet 76%
Tryck 967 hPa
Sikt 10 km eller mer

METAR: ENQA 081750Z AUTO 24037KT 9999NDV BKN021/// BKN200/// 07/03 Q0967 W07/S6

Tid: 19:34 (18:34 UTC)


TAF: saknas

Aktuella väderrapporter och prognoser från 4000 flygplatser (METAR- och TAF-rapporter).

De tillgängliga stationerna syns som gula och röda prickar på kartan.

För musen över prickarna för att se namnen på stationerna.

Klicka sedan för att få väderrapporter och prognoser.

För att ändra kartan: Klicka på de gröna knapparna med ett svart kors på för att zooma in; den gröna knappen med ett streck på för att zooma ut; eller på de gröna pilarna för angränsande kartor.


METAR-TAF: